createdAt,value
2016-11-05T00:01:08.583Z,0
2016-11-05T00:03:08.624Z,0
2016-11-05T00:03:53.717Z,0
2016-11-05T00:04:53.733Z,0
2016-11-05T00:05:53.769Z,0
2016-11-05T00:06:53.777Z,0
2016-11-05T00:07:53.790Z,0
2016-11-05T00:08:53.805Z,0
2016-11-05T00:10:53.883Z,0
2016-11-05T00:11:53.866Z,0
2016-11-05T00:13:08.806Z,0
2016-11-05T00:13:53.899Z,0
2016-11-05T00:14:53.914Z,0
2016-11-05T00:15:53.934Z,0
2016-11-05T00:16:53.954Z,0
2016-11-05T00:17:54.007Z,0
2016-11-05T00:19:08.915Z,0
2016-11-05T00:19:54.009Z,0
2016-11-05T00:20:54.025Z,0
2016-11-05T00:21:54.056Z,0
2016-11-05T00:22:54.066Z,0
2016-11-05T00:23:54.078Z,0
2016-11-05T00:24:54.103Z,0
2016-11-05T00:26:09.047Z,0
2016-11-05T00:26:54.140Z,0
2016-11-05T00:27:54.156Z,0
2016-11-05T00:28:54.175Z,0
2016-11-05T00:29:54.185Z,0
2016-11-05T00:31:09.133Z,0
2016-11-05T00:31:54.229Z,0
2016-11-05T00:32:54.245Z,0
2016-11-05T00:35:09.236Z,0
2016-11-05T00:35:54.607Z,0
2016-11-05T00:36:54.320Z,0
2016-11-05T00:37:54.338Z,0
2016-11-05T00:38:54.350Z,0
2016-11-05T00:39:54.369Z,0
2016-11-05T00:40:54.394Z,0
2016-11-05T00:41:54.408Z,0
2016-11-05T00:42:54.429Z,0
2016-11-05T00:43:54.450Z,0
2016-11-05T00:44:54.460Z,0
2016-11-05T00:45:54.480Z,0
2016-11-05T00:46:54.501Z,0
2016-11-05T00:48:54.535Z,0
2016-11-05T00:50:09.474Z,0
2016-11-05T00:50:54.571Z,0
2016-11-05T00:51:54.593Z,0
2016-11-05T00:52:54.617Z,0
2016-11-05T00:53:54.629Z,0
2016-11-05T00:54:54.650Z,0
2016-11-05T00:55:54.660Z,0
2016-11-05T00:56:54.674Z,0
2016-11-05T00:57:54.805Z,0
2016-11-05T00:58:54.723Z,0
2016-11-05T00:59:54.734Z,0
2016-11-05T01:00:54.756Z,0
2016-11-05T01:01:54.786Z,0
2016-11-05T01:03:09.711Z,0
2016-11-05T01:04:54.827Z,0
2016-11-05T01:05:54.847Z,0
2016-11-05T01:06:54.866Z,0
2016-11-05T01:07:54.884Z,0
2016-11-05T01:08:54.906Z,0
2016-11-05T01:09:54.911Z,0
2016-11-05T01:10:54.938Z,0
2016-11-05T01:11:54.958Z,0
2016-11-05T01:13:09.898Z,0
2016-11-05T01:13:54.989Z,0
2016-11-05T01:14:55.006Z,0
2016-11-05T01:16:09.950Z,0
2016-11-05T01:16:55.043Z,0
2016-11-05T01:17:55.068Z,0
2016-11-05T01:18:55.069Z,0
2016-11-05T01:19:55.097Z,0
2016-11-05T01:20:55.118Z,0
2016-11-05T01:22:10.087Z,0
2016-11-05T01:22:55.150Z,0
2016-11-05T01:23:55.167Z,0
2016-11-05T01:24:55.185Z,0
2016-11-05T01:25:55.206Z,0
2016-11-05T01:27:55.272Z,0
2016-11-05T01:28:55.251Z,0
2016-11-05T01:30:10.200Z,0
2016-11-05T01:30:55.290Z,0
2016-11-05T01:31:55.313Z,0
2016-11-05T01:32:55.326Z,0
2016-11-05T01:33:55.353Z,0
2016-11-05T01:34:55.366Z,0
2016-11-05T01:35:55.383Z,0
2016-11-05T01:36:55.400Z,0
2016-11-05T01:38:10.346Z,0
2016-11-05T01:38:55.431Z,0
2016-11-05T01:39:55.454Z,0
2016-11-05T01:40:55.477Z,0
2016-11-05T01:41:55.491Z,0
2016-11-05T01:42:55.505Z,0
2016-11-05T01:43:55.522Z,0
2016-11-05T01:44:55.540Z,0
2016-11-05T01:45:55.563Z,0
2016-11-05T01:46:55.587Z,0
2016-11-05T01:47:55.593Z,0
2016-11-05T01:48:55.612Z,0
2016-11-05T01:49:55.630Z,0
2016-11-05T01:50:55.649Z,0
2016-11-05T01:51:55.668Z,0
2016-11-05T01:52:55.689Z,0
2016-11-05T01:54:10.623Z,0
2016-11-05T01:54:55.755Z,0
2016-11-05T01:55:55.735Z,0
2016-11-05T01:57:11.020Z,0
2016-11-05T01:57:55.768Z,0
2016-11-05T01:58:55.794Z,0
2016-11-05T01:59:55.808Z,0
2016-11-05T02:00:55.827Z,0
2016-11-05T02:01:55.869Z,0
2016-11-05T02:02:55.867Z,0
2016-11-05T02:03:55.909Z,0
2016-11-05T02:04:55.900Z,0
2016-11-05T02:06:10.836Z,0
2016-11-05T02:06:55.932Z,0
2016-11-05T02:07:55.948Z,0
2016-11-05T02:08:55.961Z,0
2016-11-05T02:10:10.902Z,0
2016-11-05T02:11:56.033Z,0
2016-11-05T02:12:56.037Z,0
2016-11-05T02:13:56.062Z,0
2016-11-05T02:14:56.081Z,0
2016-11-05T02:15:56.098Z,0
2016-11-05T02:16:56.364Z,0
2016-11-05T02:19:56.159Z,0
2016-11-05T02:20:56.186Z,0
2016-11-05T02:21:56.244Z,0
2016-11-05T02:23:11.141Z,0
2016-11-05T02:23:56.229Z,0
2016-11-05T02:25:56.268Z,0
2016-11-05T02:26:56.291Z,0
2016-11-05T02:27:56.299Z,0
2016-11-05T02:28:56.332Z,0
2016-11-05T02:29:56.335Z,0
2016-11-05T02:30:56.354Z,0
2016-11-05T02:31:56.378Z,0
2016-11-05T02:32:56.393Z,0
2016-11-05T02:33:56.410Z,0
2016-11-05T02:34:56.433Z,0
2016-11-05T02:35:56.442Z,0
2016-11-05T02:36:56.467Z,0
2016-11-05T02:38:11.410Z,0
2016-11-05T02:38:56.510Z,0
2016-11-05T02:39:56.514Z,0
2016-11-05T02:40:56.534Z,0
2016-11-05T02:42:11.471Z,0
2016-11-05T02:42:56.574Z,0
2016-11-05T02:43:56.595Z,0
2016-11-05T02:44:56.603Z,0
2016-11-05T02:45:56.622Z,0
2016-11-05T02:46:56.644Z,0
2016-11-05T02:47:56.654Z,0
2016-11-05T02:48:56.679Z,0
2016-11-05T02:49:56.695Z,0
2016-11-05T02:51:11.636Z,0
2016-11-05T02:51:56.730Z,0
2016-11-05T02:52:56.743Z,0
2016-11-05T02:54:11.688Z,0
2016-11-05T02:54:56.788Z,0
2016-11-05T02:55:56.804Z,0
2016-11-05T02:57:11.748Z,0
2016-11-05T02:57:56.843Z,0
2016-11-05T02:58:56.849Z,0
2016-11-05T02:59:56.879Z,0
2016-11-05T03:00:56.889Z,0
2016-11-05T03:01:56.902Z,0
2016-11-05T03:02:56.919Z,0
2016-11-05T03:03:56.948Z,0
2016-11-05T03:04:56.957Z,0
2016-11-05T03:05:56.978Z,0
2016-11-05T03:06:57.000Z,0
2016-11-05T03:08:11.937Z,0
2016-11-05T03:08:57.035Z,0
2016-11-05T03:09:57.053Z,0
2016-11-05T03:11:11.993Z,0
2016-11-05T03:11:57.088Z,0
2016-11-05T03:13:12.027Z,0
2016-11-05T03:13:57.126Z,0
2016-11-05T03:14:57.142Z,0
2016-11-05T03:15:57.163Z,0
2016-11-05T03:16:57.179Z,0
2016-11-05T03:19:57.232Z,0
2016-11-05T03:21:57.265Z,0
2016-11-05T03:22:57.284Z,0
2016-11-05T03:23:57.297Z,0
2016-11-05T03:24:57.356Z,0
2016-11-05T03:25:57.338Z,0
2016-11-05T03:27:12.275Z,0
2016-11-05T03:27:57.374Z,0
2016-11-05T03:29:12.314Z,0
2016-11-05T03:29:57.405Z,0
2016-11-05T03:30:57.425Z,0
2016-11-05T03:31:57.438Z,0
2016-11-05T03:32:57.464Z,0
2016-11-05T03:33:57.719Z,0
2016-11-05T03:34:57.503Z,0
2016-11-05T03:36:57.534Z,0
2016-11-05T03:37:57.548Z,0
2016-11-05T03:38:57.569Z,0
2016-11-05T03:39:57.597Z,0
2016-11-05T03:41:12.526Z,0
2016-11-05T03:42:57.638Z,0
2016-11-05T03:43:57.650Z,0
2016-11-05T03:45:12.591Z,0
2016-11-05T03:46:57.709Z,0
2016-11-05T03:47:57.729Z,0
2016-11-05T03:48:57.757Z,0
2016-11-05T03:49:57.770Z,0
2016-11-05T03:50:57.779Z,0
2016-11-05T03:51:57.800Z,0
2016-11-05T03:52:57.819Z,0
2016-11-05T03:53:57.837Z,0
2016-11-05T03:54:57.853Z,0
2016-11-05T03:55:57.872Z,0
2016-11-05T03:57:12.809Z,0
2016-11-05T03:57:57.913Z,0
2016-11-05T03:58:57.927Z,0
2016-11-05T04:00:57.958Z,0
2016-11-05T04:01:57.982Z,0
2016-11-05T04:02:58.002Z,0
2016-11-05T04:03:58.019Z,0
2016-11-05T04:04:58.028Z,0
2016-11-05T04:05:58.053Z,0
2016-11-05T04:06:58.073Z,0
2016-11-05T04:07:58.090Z,0
2016-11-05T04:08:58.104Z,0
2016-11-05T04:10:13.049Z,0
2016-11-05T04:12:13.081Z,0
2016-11-05T04:12:58.173Z,0
2016-11-05T04:13:58.201Z,0
2016-11-05T04:14:58.221Z,0
2016-11-05T04:15:58.257Z,0
2016-11-05T04:17:13.165Z,0
2016-11-05T04:17:58.264Z,0
2016-11-05T04:18:58.287Z,0
2016-11-05T04:19:58.299Z,0
2016-11-05T04:20:58.329Z,0
2016-11-05T04:21:58.340Z,0
2016-11-05T04:22:58.362Z,0
2016-11-05T04:23:58.370Z,0
2016-11-05T04:25:58.442Z,0
2016-11-05T04:27:58.449Z,0
2016-11-05T04:28:58.471Z,0
2016-11-05T04:29:58.479Z,0
2016-11-05T04:30:58.509Z,0
2016-11-05T04:32:13.478Z,0
2016-11-05T04:32:58.533Z,0
2016-11-05T04:34:58.566Z,0
2016-11-05T04:35:58.594Z,0
2016-11-05T04:36:58.609Z,0
2016-11-05T04:37:58.620Z,0
2016-11-05T04:38:58.646Z,0
2016-11-05T04:39:58.659Z,0
2016-11-05T04:40:58.677Z,0
2016-11-05T04:41:58.707Z,0
2016-11-05T04:42:58.715Z,0
2016-11-05T04:43:58.727Z,0
2016-11-05T04:45:13.672Z,0
2016-11-05T04:46:13.695Z,0
2016-11-05T04:46:58.790Z,0
2016-11-05T04:48:13.730Z,0
2016-11-05T04:48:58.819Z,0
2016-11-05T04:49:58.878Z,0
2016-11-05T04:50:58.855Z,0
2016-11-05T04:51:58.915Z,0
2016-11-05T04:52:58.923Z,0
2016-11-05T04:53:58.902Z,0
2016-11-05T04:54:58.932Z,0
2016-11-05T04:55:58.946Z,0
2016-11-05T04:56:58.968Z,0
2016-11-05T04:58:13.906Z,0
2016-11-05T04:58:59.003Z,0
2016-11-05T04:59:59.321Z,0
2016-11-05T05:00:59.047Z,0
2016-11-05T05:01:59.057Z,0
2016-11-05T05:02:59.109Z,0
2016-11-05T05:04:14.017Z,0
2016-11-05T05:04:59.108Z,0
2016-11-05T05:06:59.151Z,0
2016-11-05T05:07:59.161Z,0
2016-11-05T05:08:59.176Z,0
2016-11-05T05:09:59.195Z,0
2016-11-05T05:10:59.211Z,0
2016-11-05T05:12:59.246Z,0
2016-11-05T05:13:59.272Z,0
2016-11-05T05:15:14.209Z,0
2016-11-05T05:16:14.229Z,0
2016-11-05T05:17:59.347Z,0
2016-11-05T05:18:59.357Z,0
2016-11-05T05:20:14.308Z,0
2016-11-05T05:20:59.400Z,0
2016-11-05T05:24:59.471Z,0
2016-11-05T05:25:59.483Z,0
2016-11-05T05:26:59.502Z,0
2016-11-05T05:27:59.512Z,0
2016-11-05T05:28:59.533Z,0
2016-11-05T05:29:59.559Z,0
2016-11-05T05:30:59.607Z,0
2016-11-05T05:31:59.591Z,0
2016-11-05T05:33:14.531Z,0
2016-11-05T05:33:59.631Z,0
2016-11-05T05:35:14.568Z,0
2016-11-05T05:35:59.667Z,0
2016-11-05T05:37:14.608Z,0
2016-11-05T05:37:59.704Z,0
2016-11-05T05:38:59.756Z,0
2016-11-05T05:39:59.733Z,0
2016-11-05T05:40:59.748Z,0
2016-11-05T05:41:59.771Z,0
2016-11-05T05:42:59.791Z,0
2016-11-05T05:43:59.812Z,0
2016-11-05T05:44:59.823Z,0
2016-11-05T05:45:59.847Z,0
2016-11-05T05:47:59.884Z,4
2016-11-05T05:48:59.897Z,4
2016-11-05T05:49:59.913Z,4
2016-11-05T05:50:59.929Z,4
2016-11-05T05:51:59.952Z,4
2016-11-05T05:53:59.990Z,0
2016-11-05T05:55:00.014Z,4
2016-11-05T05:56:00.031Z,4
2016-11-05T05:57:00.078Z,8
2016-11-05T05:59:00.075Z,8
2016-11-05T06:00:00.102Z,8
2016-11-05T06:01:00.114Z,8
2016-11-05T06:02:00.140Z,12
2016-11-05T06:03:00.147Z,12
2016-11-05T06:04:15.090Z,12
2016-11-05T06:05:00.187Z,12
2016-11-05T06:06:15.122Z,20
2016-11-05T06:07:15.146Z,20
2016-11-05T06:08:00.295Z,24
2016-11-05T06:09:00.256Z,24
2016-11-05T06:10:00.275Z,24
2016-11-05T06:11:00.290Z,28
2016-11-05T06:12:00.317Z,28
2016-11-05T06:13:00.362Z,36
2016-11-05T06:14:00.354Z,36
2016-11-05T06:15:00.368Z,40
2016-11-05T06:16:00.425Z,44
2016-11-05T06:17:00.436Z,44
2016-11-05T06:18:15.345Z,52
2016-11-05T06:19:00.440Z,52
2016-11-05T06:20:15.382Z,56
2016-11-05T06:21:00.505Z,60
2016-11-05T06:23:15.432Z,64
2016-11-05T06:24:00.527Z,68
2016-11-05T06:25:00.542Z,76
2016-11-05T06:26:00.567Z,80
2016-11-05T06:27:00.585Z,88
2016-11-05T06:28:00.633Z,96
2016-11-05T06:29:00.621Z,100
2016-11-05T06:30:00.641Z,108
2016-11-05T06:31:00.654Z,108
2016-11-05T06:32:15.599Z,116
2016-11-05T06:33:00.691Z,120
2016-11-05T06:34:00.712Z,128
2016-11-05T06:35:15.653Z,140
2016-11-05T06:36:00.747Z,148
2016-11-05T06:37:00.809Z,156
2016-11-05T06:38:00.783Z,164
2016-11-05T06:39:16.028Z,172
2016-11-05T06:41:00.833Z,192
2016-11-05T06:42:00.859Z,204
2016-11-05T06:43:00.874Z,216
2016-11-05T06:44:00.895Z,228
2016-11-05T06:45:00.905Z,240
2016-11-05T06:46:00.922Z,256
2016-11-05T06:47:00.945Z,272
2016-11-05T06:48:00.964Z,296
2016-11-05T06:49:15.937Z,336
2016-11-05T06:50:00.999Z,356
2016-11-05T06:51:01.013Z,376
2016-11-05T06:52:01.034Z,388
2016-11-05T06:53:01.088Z,388
2016-11-05T06:54:15.993Z,388
2016-11-05T06:55:16.005Z,388
2016-11-05T06:56:01.108Z,388
2016-11-05T06:57:01.131Z,380
2016-11-05T06:58:01.143Z,372
2016-11-05T06:59:01.161Z,368
2016-11-05T07:00:01.214Z,364
2016-11-05T07:01:01.209Z,348
2016-11-05T07:02:01.246Z,344
2016-11-05T07:03:01.280Z,340
2016-11-05T07:04:01.256Z,348
2016-11-05T07:05:01.270Z,360
2016-11-05T07:06:01.291Z,376
2016-11-05T07:07:01.316Z,392
2016-11-05T07:08:01.365Z,400
2016-11-05T07:09:01.344Z,404
2016-11-05T07:11:01.391Z,416
2016-11-05T07:12:01.405Z,440
2016-11-05T07:13:01.450Z,472
2016-11-05T07:14:01.447Z,504
2016-11-05T07:15:01.454Z,520
2016-11-05T07:17:01.487Z,552
2016-11-05T07:18:01.568Z,560
2016-11-05T07:19:01.527Z,564
2016-11-05T07:20:01.810Z,572
2016-11-05T07:21:01.557Z,600
2016-11-05T07:22:16.507Z,648
2016-11-05T07:23:01.904Z,684
2016-11-05T07:24:01.667Z,732
2016-11-05T07:25:16.562Z,792
2016-11-05T07:26:01.670Z,816
2016-11-05T07:27:01.722Z,820
2016-11-05T07:28:01.693Z,804
2016-11-05T07:29:01.723Z,776
2016-11-05T07:30:01.734Z,768
2016-11-05T07:31:16.680Z,792
2016-11-05T07:32:01.769Z,820
2016-11-05T07:33:01.789Z,884
2016-11-05T07:34:01.812Z,976
2016-11-05T07:35:01.843Z,1056
2016-11-05T07:36:01.852Z,1120
2016-11-05T07:37:16.784Z,1160
2016-11-05T07:38:01.884Z,1184
2016-11-05T07:39:01.902Z,1200
2016-11-05T07:40:01.924Z,1212
2016-11-05T07:41:01.939Z,1224
2016-11-05T07:42:16.878Z,1248
2016-11-05T07:43:01.975Z,1272
2016-11-05T07:44:01.995Z,1356
2016-11-05T07:46:02.029Z,1556
2016-11-05T07:47:02.052Z,1652
2016-11-05T07:48:02.101Z,1792
2016-11-05T07:49:02.093Z,1972
2016-11-05T07:50:02.103Z,2140
2016-11-05T07:51:02.138Z,2216
2016-11-05T07:52:02.136Z,2168
2016-11-05T07:53:02.165Z,2092
2016-11-05T07:54:02.183Z,2056
2016-11-05T07:55:02.228Z,2048
2016-11-05T07:56:17.133Z,1960
2016-11-05T07:57:02.233Z,1844
2016-11-05T07:58:17.175Z,1648
2016-11-05T08:00:02.294Z,1468
2016-11-05T08:01:02.313Z,1420
2016-11-05T08:02:02.330Z,1360
2016-11-05T08:03:02.351Z,1296
2016-11-05T08:04:02.368Z,1248
2016-11-05T08:05:02.388Z,1236
2016-11-05T08:06:02.408Z,1264
2016-11-05T08:07:02.422Z,1340
2016-11-05T08:08:02.455Z,1440
2016-11-05T08:09:02.461Z,1552
2016-11-05T08:10:02.505Z,1652
2016-11-05T08:12:02.520Z,1728
2016-11-05T08:13:17.453Z,1696
2016-11-05T08:14:17.470Z,1656
2016-11-05T08:16:02.597Z,1492
2016-11-05T08:17:02.612Z,1364
2016-11-05T08:18:02.627Z,1252
2016-11-05T08:19:02.650Z,1168
2016-11-05T08:20:02.663Z,1116
2016-11-05T08:21:17.611Z,1048
2016-11-05T08:22:02.710Z,1008
2016-11-05T08:23:02.726Z,972
2016-11-05T08:24:17.665Z,956
2016-11-05T08:25:03.067Z,944
2016-11-05T08:27:02.819Z,924
2016-11-05T08:28:02.821Z,940
2016-11-05T08:29:02.837Z,968
2016-11-05T08:30:17.782Z,1004
2016-11-05T08:31:02.879Z,1028
2016-11-05T08:32:03.149Z,1072
2016-11-05T08:33:02.916Z,1124
2016-11-05T08:34:02.930Z,1136
2016-11-05T08:35:02.949Z,1128
2016-11-05T08:36:03.276Z,1116
2016-11-05T08:37:02.985Z,1136
2016-11-05T08:38:03.003Z,1200
2016-11-05T08:39:03.020Z,1292
2016-11-05T08:40:03.064Z,1392
2016-11-05T08:41:03.066Z,1468
2016-11-05T08:42:18.006Z,1484
2016-11-05T08:43:03.107Z,1440
2016-11-05T08:44:03.122Z,1328
2016-11-05T08:45:18.058Z,1148
2016-11-05T08:46:03.164Z,1108
2016-11-05T08:49:03.253Z,1268
2016-11-05T08:50:03.234Z,1340
2016-11-05T08:51:03.254Z,1412
2016-11-05T08:52:03.279Z,1448
2016-11-05T08:53:03.297Z,1476
2016-11-05T08:54:18.234Z,1492
2016-11-05T08:55:03.333Z,1520
2016-11-05T08:56:03.354Z,1616
2016-11-05T08:57:18.305Z,1768
2016-11-05T08:58:03.401Z,1828
2016-11-05T08:59:03.418Z,1860
2016-11-05T09:00:03.442Z,1924
2016-11-05T09:01:03.448Z,2036
2016-11-05T09:02:03.473Z,2180
2016-11-05T09:03:03.494Z,2340
2016-11-05T09:05:03.527Z,2744
2016-11-05T09:06:03.545Z,2964
2016-11-05T09:07:03.564Z,3180
2016-11-05T09:08:03.584Z,3380
2016-11-05T09:10:03.624Z,3632
2016-11-05T09:11:03.644Z,3804
2016-11-05T09:12:18.587Z,4044
2016-11-05T09:13:03.682Z,4188
2016-11-05T09:14:03.730Z,4380
2016-11-05T09:15:03.721Z,4520
2016-11-05T09:16:04.048Z,4604
2016-11-05T09:17:18.675Z,4620
2016-11-05T09:18:03.777Z,4592
2016-11-05T09:19:03.798Z,4512
2016-11-05T09:20:03.822Z,4360
2016-11-05T09:21:03.839Z,4228
2016-11-05T09:22:03.863Z,4140
2016-11-05T09:23:03.873Z,4076
2016-11-05T09:24:03.895Z,3976
2016-11-05T09:25:03.917Z,3816
2016-11-05T09:26:03.938Z,3560
2016-11-05T09:27:03.956Z,3216
2016-11-05T09:29:03.999Z,2728
2016-11-05T09:30:04.044Z,2600
2016-11-05T09:31:04.038Z,2492
2016-11-05T09:32:04.054Z,2388
2016-11-05T09:33:18.999Z,2300
2016-11-05T09:34:04.093Z,2308
2016-11-05T09:35:04.107Z,2412
2016-11-05T09:36:04.132Z,2472
2016-11-05T09:38:04.180Z,2660
2016-11-05T09:39:04.233Z,2780
2016-11-05T09:40:04.230Z,2872
2016-11-05T09:41:04.234Z,2992
2016-11-05T09:42:04.257Z,3148
2016-11-05T09:43:04.284Z,3316
2016-11-05T09:44:04.295Z,3484
2016-11-05T09:45:04.314Z,3616
2016-11-05T09:47:04.356Z,3676
2016-11-05T09:48:04.376Z,3684
2016-11-05T09:49:19.313Z,3616
2016-11-05T09:50:04.414Z,3564
2016-11-05T09:51:04.440Z,3496
2016-11-05T09:52:04.456Z,3460
2016-11-05T09:53:04.476Z,3444
2016-11-05T09:54:04.499Z,3416
2016-11-05T09:55:19.443Z,3252
2016-11-05T09:56:04.534Z,3184
2016-11-05T09:58:04.582Z,3248
2016-11-05T09:59:04.599Z,3372
2016-11-05T10:00:19.539Z,3532
2016-11-05T10:01:04.639Z,3600
2016-11-05T10:02:04.662Z,3656
2016-11-05T10:03:04.676Z,3704
2016-11-05T10:04:04.699Z,3780
2016-11-05T10:05:19.638Z,3896
2016-11-05T10:07:04.764Z,3980
2016-11-05T10:09:04.806Z,3720
2016-11-05T10:10:04.820Z,3584
2016-11-05T10:11:04.839Z,3484
2016-11-05T10:12:04.859Z,3412
2016-11-05T10:13:04.928Z,3364
2016-11-05T10:14:04.908Z,3352
2016-11-05T10:15:04.932Z,3380
2016-11-05T10:16:19.870Z,3420
2016-11-05T10:17:04.968Z,3420
2016-11-05T10:18:05.291Z,3400
2016-11-05T10:19:05.004Z,3340
2016-11-05T10:21:05.043Z,3004
2016-11-05T10:23:20.017Z,2152
2016-11-05T10:24:05.117Z,1868
2016-11-05T10:25:05.135Z,1588
2016-11-05T10:26:05.147Z,1396
2016-11-05T10:27:05.174Z,1260
2016-11-05T10:28:05.190Z,1188
2016-11-05T10:29:20.133Z,1168
2016-11-05T10:30:05.232Z,1180
2016-11-05T10:31:20.173Z,1220
2016-11-05T10:32:05.273Z,1260
2016-11-05T10:33:05.311Z,1348
2016-11-05T10:34:20.232Z,1528
2016-11-05T10:35:05.341Z,1644
2016-11-05T10:36:05.354Z,1780
2016-11-05T10:37:05.412Z,1828
2016-11-05T10:38:05.400Z,1824
2016-11-05T10:39:05.423Z,1816
2016-11-05T10:40:05.437Z,1816
2016-11-05T10:41:05.457Z,1836
2016-11-05T10:42:05.478Z,1820
2016-11-05T10:43:05.496Z,1804
2016-11-05T10:44:05.817Z,1784
2016-11-05T10:45:05.573Z,1744
2016-11-05T10:46:05.564Z,1744
2016-11-05T10:47:05.579Z,1868
2016-11-05T10:48:05.604Z,2096
2016-11-05T10:50:20.557Z,2888
2016-11-05T10:52:20.597Z,2804
2016-11-05T10:53:05.704Z,2712
2016-11-05T10:54:05.717Z,2620
2016-11-05T10:55:05.782Z,2508
2016-11-05T10:56:06.069Z,2428
2016-11-05T10:58:20.731Z,2500
2016-11-05T10:59:06.125Z,2588
2016-11-05T11:00:05.846Z,2744
2016-11-05T11:01:05.864Z,2948
2016-11-05T11:02:20.808Z,3116
2016-11-05T11:03:05.912Z,3212
2016-11-05T11:04:05.928Z,3400
2016-11-05T11:05:05.985Z,3572
2016-11-05T11:06:20.888Z,3808
2016-11-05T11:07:20.906Z,3988
2016-11-05T11:08:20.939Z,4180
2016-11-05T11:09:06.027Z,4316
2016-11-05T11:10:06.051Z,4532
2016-11-05T11:11:06.068Z,4744
2016-11-05T11:12:06.106Z,4840
2016-11-05T11:13:06.116Z,4820
2016-11-05T11:14:06.143Z,4724
2016-11-05T11:15:06.156Z,4616
2016-11-05T11:16:06.179Z,4544
2016-11-05T11:17:06.498Z,4496
2016-11-05T11:18:06.223Z,4456
2016-11-05T11:19:21.160Z,4452
2016-11-05T11:21:21.203Z,4540
2016-11-05T11:22:06.307Z,4580
2016-11-05T11:23:06.333Z,4604
2016-11-05T11:24:36.190Z,4624
2016-11-05T11:25:06.367Z,4644
2016-11-05T11:26:06.384Z,4708
2016-11-05T11:27:06.860Z,4764
2016-11-05T11:28:06.469Z,4800
2016-11-05T11:29:06.449Z,4768
2016-11-05T11:30:06.474Z,4672
2016-11-05T11:31:06.490Z,4520
2016-11-05T11:32:06.531Z,4364
2016-11-05T11:33:06.533Z,4236
2016-11-05T11:34:21.476Z,4152
2016-11-05T11:35:06.576Z,4152
2016-11-05T11:36:06.595Z,4188
2016-11-05T11:38:06.641Z,4268
2016-11-05T11:39:06.656Z,4324
2016-11-05T11:41:06.702Z,4536
2016-11-05T11:42:06.730Z,4600
2016-11-05T11:43:06.745Z,4640
2016-11-05T11:44:06.761Z,4664
2016-11-05T11:45:21.714Z,4676
2016-11-05T11:47:06.845Z,4528
2016-11-05T11:48:06.856Z,4396
2016-11-05T11:49:06.867Z,4264
2016-11-05T11:50:06.896Z,4144
2016-11-05T11:51:06.917Z,4020
2016-11-05T11:52:06.932Z,3888
2016-11-05T11:53:22.184Z,3716
2016-11-05T11:54:06.984Z,3620
2016-11-05T11:56:07.053Z,3420
2016-11-05T11:57:07.042Z,3368
2016-11-05T11:58:07.068Z,3384
2016-11-05T11:59:07.098Z,3480
2016-11-05T12:00:07.112Z,3624
2016-11-05T12:01:07.430Z,3728
2016-11-05T12:02:07.153Z,3712
2016-11-05T12:03:07.204Z,3608
2016-11-05T12:04:07.193Z,3500
2016-11-05T12:06:07.242Z,3344
2016-11-05T12:07:07.556Z,3252
2016-11-05T12:09:07.304Z,2960
2016-11-05T12:10:07.327Z,2792
2016-11-05T12:11:07.348Z,2664
2016-11-05T12:12:07.669Z,2556
2016-11-05T12:13:22.318Z,2460
2016-11-05T12:14:07.408Z,2436
2016-11-05T12:15:22.358Z,2444
2016-11-05T12:16:07.452Z,2428
2016-11-05T12:17:07.474Z,2324
2016-11-05T12:18:07.499Z,2208
2016-11-05T12:19:07.513Z,2108
2016-11-05T12:20:07.537Z,2048
2016-11-05T12:21:07.861Z,2020
2016-11-05T12:22:07.898Z,2016
2016-11-05T12:23:22.523Z,2060
2016-11-05T12:24:07.626Z,2100
2016-11-05T12:25:07.647Z,2108
2016-11-05T12:26:07.668Z,2044
2016-11-05T12:28:07.716Z,1916
2016-11-05T12:30:08.059Z,1936
2016-11-05T12:31:07.777Z,1968
2016-11-05T12:32:07.793Z,2036
2016-11-05T12:33:07.816Z,2084
2016-11-05T12:34:07.837Z,2112
2016-11-05T12:35:22.817Z,2244
2016-11-05T12:36:07.882Z,2356
2016-11-05T12:37:07.896Z,2444
2016-11-05T12:38:07.924Z,2492
2016-11-05T12:39:22.868Z,2532
2016-11-05T12:40:07.971Z,2576
2016-11-05T12:41:22.904Z,2688
2016-11-05T12:42:22.927Z,2780
2016-11-05T12:43:22.954Z,2876
2016-11-05T12:44:08.386Z,2924
2016-11-05T12:45:08.077Z,2936
2016-11-05T12:46:08.104Z,2908
2016-11-05T12:47:08.117Z,2912
2016-11-05T12:48:08.136Z,2916
2016-11-05T12:49:08.157Z,2884
2016-11-05T12:50:08.187Z,2832
2016-11-05T12:51:08.205Z,2768
2016-11-05T12:52:08.220Z,2724
2016-11-05T12:53:08.249Z,2656
2016-11-05T12:54:08.567Z,2556
2016-11-05T12:55:08.292Z,2468
2016-11-05T12:56:08.309Z,2384
2016-11-05T12:57:08.339Z,2316
2016-11-05T12:58:08.369Z,2300
2016-11-05T12:59:23.309Z,2312
2016-11-05T13:00:08.398Z,2336
2016-11-05T13:01:08.416Z,2380
2016-11-05T13:02:08.444Z,2440
2016-11-05T13:03:08.465Z,2460
2016-11-05T13:04:08.486Z,2452
2016-11-05T13:05:08.511Z,2436
2016-11-05T13:06:08.533Z,2404
2016-11-05T13:07:08.546Z,2376
2016-11-05T13:08:08.574Z,2328
2016-11-05T13:09:23.517Z,2260
2016-11-05T13:10:08.625Z,2236
2016-11-05T13:11:08.808Z,2212
2016-11-05T13:12:23.575Z,2180
2016-11-05T13:13:08.679Z,2168
2016-11-05T13:14:08.706Z,2136
2016-11-05T13:15:23.640Z,2084
2016-11-05T13:16:08.746Z,2024
2016-11-05T13:17:08.764Z,1932
2016-11-05T13:18:08.785Z,1804
2016-11-05T13:19:08.812Z,1700
2016-11-05T13:20:08.840Z,1612
2016-11-05T13:21:08.849Z,1548
2016-11-05T13:22:08.879Z,1492
2016-11-05T13:23:08.895Z,1472
2016-11-05T13:24:08.914Z,1476
2016-11-05T13:25:08.936Z,1476
2016-11-05T13:26:08.959Z,1464
2016-11-05T13:27:09.278Z,1456
2016-11-05T13:28:09.013Z,1436
2016-11-05T13:29:09.025Z,1424
2016-11-05T13:30:23.962Z,1460
2016-11-05T13:31:09.063Z,1492
2016-11-05T13:33:09.112Z,1524
2016-11-05T13:34:09.132Z,1532
2016-11-05T13:35:09.153Z,1540
2016-11-05T13:36:09.176Z,1548
2016-11-05T13:37:09.224Z,1544
2016-11-05T13:38:09.255Z,1536
2016-11-05T13:39:09.237Z,1516
2016-11-05T13:40:09.266Z,1504
2016-11-05T13:41:09.596Z,1488
2016-11-05T13:42:24.223Z,1456
2016-11-05T13:44:09.346Z,1416
2016-11-05T13:45:09.379Z,1360
2016-11-05T13:46:09.393Z,1288
2016-11-05T13:48:09.434Z,1128
2016-11-05T13:49:09.457Z,1052
2016-11-05T13:50:09.575Z,980
2016-11-05T13:51:09.502Z,916
2016-11-05T13:52:09.518Z,852
2016-11-05T13:53:09.538Z,800
2016-11-05T13:54:10.222Z,752
2016-11-05T13:55:09.585Z,716
2016-11-05T13:56:24.528Z,676
2016-11-05T13:57:09.623Z,656
2016-11-05T13:58:24.568Z,640
2016-11-05T13:59:09.674Z,632
2016-11-05T14:01:09.714Z,620
2016-11-05T14:03:09.759Z,612
2016-11-05T14:04:09.773Z,600
2016-11-05T14:05:09.803Z,592
2016-11-05T14:06:09.824Z,580
2016-11-05T14:07:09.844Z,560
2016-11-05T14:08:09.863Z,544
2016-11-05T14:09:24.811Z,528
2016-11-05T14:10:09.911Z,512
2016-11-05T14:11:09.925Z,492
2016-11-05T14:12:09.948Z,472
2016-11-05T14:13:09.967Z,452
2016-11-05T14:14:09.995Z,432
2016-11-05T14:15:10.024Z,416
2016-11-05T14:16:10.045Z,400
2016-11-05T14:17:24.971Z,380
2016-11-05T14:18:24.999Z,360
2016-11-05T14:19:10.107Z,348
2016-11-05T14:20:10.118Z,320
2016-11-05T14:21:10.143Z,300
2016-11-05T14:22:10.195Z,284
2016-11-05T14:23:10.186Z,268
2016-11-05T14:24:10.202Z,260
2016-11-05T14:25:25.152Z,244
2016-11-05T14:26:10.250Z,228
2016-11-05T14:27:10.275Z,212
2016-11-05T14:28:10.295Z,200
2016-11-05T14:29:40.155Z,192
2016-11-05T14:30:25.282Z,188
2016-11-05T14:31:10.347Z,188
2016-11-05T14:32:25.296Z,188
2016-11-05T14:33:10.395Z,192
2016-11-05T14:34:25.373Z,196
2016-11-05T14:35:10.437Z,188
2016-11-05T14:36:10.457Z,180
2016-11-05T14:38:10.499Z,148
2016-11-05T14:39:10.525Z,140
2016-11-05T14:40:10.545Z,136
2016-11-05T14:41:10.572Z,132
2016-11-05T14:42:25.511Z,132
2016-11-05T14:43:10.612Z,128
2016-11-05T14:45:10.647Z,120
2016-11-05T14:46:10.674Z,112
2016-11-05T14:47:25.643Z,108
2016-11-05T14:48:10.712Z,108
2016-11-05T14:49:10.739Z,104
2016-11-05T14:50:25.678Z,96
2016-11-05T14:51:10.777Z,92
2016-11-05T14:52:10.791Z,88
2016-11-05T14:53:10.818Z,84
2016-11-05T14:54:10.840Z,80
2016-11-05T14:55:10.859Z,84
2016-11-05T14:56:10.883Z,84
2016-11-05T14:57:10.905Z,76
2016-11-05T14:58:10.931Z,80
2016-11-05T14:59:10.943Z,76
2016-11-05T15:00:10.960Z,72
2016-11-05T15:01:11.015Z,60
2016-11-05T15:02:11.008Z,56
2016-11-05T15:03:11.025Z,56
2016-11-05T15:05:25.996Z,48
2016-11-05T15:06:11.385Z,44
2016-11-05T15:07:11.113Z,36
2016-11-05T15:09:11.158Z,36
2016-11-05T15:10:11.174Z,40
2016-11-05T15:11:11.196Z,40